Flagstaff (FLG/KFLG)

Map

Destinations

Information

Location
Flagstaff, AZ
Local Time
18:49 / 6:49 pm
GMT Time
01:49 / 1:49 am
Gates
1
No FAA reported delays
METAR KFLG 270057Z 26011G19KT 10SM CLR 29/M06 A3025 RMK AO2 PK WND 23027/0026 SLP133 T02891061
TAF KFLG 262332Z 2700/2724 25011G19KT P6SM SCT100 FM270300 VRB05KT P6SM FEW120 FM271800 23020G30KT P6SM SKC